createdAt,value
2022-09-28T00:02:22.641Z,17.65
2022-09-28T00:04:50.591Z,17.35
2022-09-28T00:07:18.353Z,17.35
2022-09-28T00:09:46.384Z,17.46
2022-09-28T00:12:14.157Z,17.49
2022-09-28T00:14:44.272Z,17.63
2022-09-28T00:17:11.983Z,17.77
2022-09-28T00:19:40.010Z,17.88
2022-09-28T00:22:07.972Z,17.95
2022-09-28T00:24:36.458Z,18.07
2022-09-28T00:27:04.258Z,18.15
2022-09-28T00:29:33.764Z,18.20
2022-09-28T00:32:04.458Z,18.20
2022-09-28T00:34:34.576Z,18.41
2022-09-28T00:37:05.765Z,18.21
2022-09-28T00:39:37.682Z,16.61
2022-09-28T00:42:11.903Z,16.27
2022-09-28T00:44:45.855Z,16.70
2022-09-28T00:47:30.725Z,17.37
2022-09-28T00:50:01.941Z,17.15
2022-09-28T00:52:33.777Z,17.16
2022-09-28T00:55:06.758Z,17.21
2022-09-28T00:57:38.875Z,17.25
2022-09-28T01:00:19.303Z,17.38
2022-09-28T01:02:48.888Z,17.42
2022-09-28T01:05:19.169Z,17.38
2022-09-28T01:07:49.244Z,17.43
2022-09-28T01:10:17.990Z,17.56
2022-09-28T01:12:46.699Z,17.90
2022-09-28T01:15:15.236Z,17.79
2022-09-28T01:17:57.075Z,17.57
2022-09-28T01:20:43.749Z,17.54
2022-09-28T01:23:28.762Z,17.59
2022-09-28T01:26:01.795Z,17.46
2022-09-28T01:28:30.016Z,17.48
2022-09-28T01:31:03.014Z,17.43
2022-09-28T01:33:32.711Z,17.32
2022-09-28T01:36:05.047Z,17.26
2022-09-28T01:38:37.243Z,17.71
2022-09-28T01:41:05.942Z,17.74
2022-09-28T01:43:35.695Z,17.19
2022-09-28T01:46:07.646Z,16.24
2022-09-28T01:48:39.264Z,16.55
2022-09-28T01:51:10.457Z,17.14
2022-09-28T01:53:41.202Z,17.12
2022-09-28T01:56:17.820Z,17.27
2022-09-28T01:58:48.653Z,17.66
2022-09-28T02:01:18.132Z,16.72
2022-09-28T02:03:48.848Z,16.09
2022-09-28T02:06:20.034Z,16.66
2022-09-28T02:08:50.709Z,17.13
2022-09-28T02:11:20.030Z,16.53
2022-09-28T02:13:49.987Z,17.19
2022-09-28T02:16:19.936Z,17.28
2022-09-28T02:18:50.520Z,17.15
2022-09-28T02:21:23.020Z,17.32
2022-09-28T02:23:53.941Z,16.08
2022-09-28T02:26:24.763Z,15.93
2022-09-28T02:28:52.929Z,16.43
2022-09-28T02:31:20.811Z,16.98
2022-09-28T02:33:51.133Z,16.99
2022-09-28T02:36:19.201Z,16.44
2022-09-28T02:38:46.956Z,16.62
2022-09-28T02:41:20.157Z,16.50
2022-09-28T02:43:52.951Z,16.95
2022-09-28T02:46:20.514Z,15.11
2022-09-28T02:49:17.361Z,15.16
2022-09-28T02:51:47.166Z,15.63
2022-09-28T02:54:28.883Z,15.33
2022-09-28T02:57:03.073Z,14.94
2022-09-28T02:59:43.788Z,15.09
2022-09-28T03:02:18.733Z,15.26
2022-09-28T03:04:52.717Z,15.21
2022-09-28T03:07:27.767Z,15.18
2022-09-28T03:09:59.118Z,15.84
2022-09-28T03:12:29.482Z,15.04
2022-09-28T03:15:08.515Z,14.25
2022-09-28T03:17:36.767Z,14.69
2022-09-28T03:20:06.187Z,14.83
2022-09-28T03:22:34.163Z,15.03
2022-09-28T03:25:01.773Z,15.36
2022-09-28T03:27:30.073Z,14.30
2022-09-28T03:29:57.965Z,13.56
2022-09-28T03:32:25.705Z,14.44
2022-09-28T03:34:53.978Z,14.80
2022-09-28T03:37:22.198Z,15.29
2022-09-28T03:39:50.001Z,14.20
2022-09-28T03:42:18.095Z,14.01
2022-09-28T03:44:48.668Z,15.10
2022-09-28T03:47:17.690Z,14.53
2022-09-28T03:49:45.811Z,13.64
2022-09-28T03:52:14.193Z,14.36
2022-09-28T03:54:45.732Z,15.22
2022-09-28T03:57:17.096Z,14.35
2022-09-28T03:59:44.720Z,13.26
2022-09-28T04:02:12.797Z,13.75
2022-09-28T04:04:41.151Z,14.30
2022-09-28T04:07:08.809Z,14.83
2022-09-28T04:09:36.487Z,15.15
2022-09-28T04:12:05.009Z,15.40
2022-09-28T04:14:33.903Z,15.59
2022-09-28T04:17:01.661Z,16.04
2022-09-28T04:19:32.465Z,15.08
2022-09-28T04:22:25.209Z,13.90
2022-09-28T04:24:53.219Z,14.81
2022-09-28T04:27:35.581Z,15.37
2022-09-28T04:30:04.266Z,15.11
2022-09-28T04:32:34.192Z,13.62
2022-09-28T04:35:02.198Z,13.69
2022-09-28T04:37:31.369Z,14.44
2022-09-28T04:39:59.176Z,14.67
2022-09-28T04:42:27.798Z,14.65
2022-09-28T04:44:57.520Z,14.92
2022-09-28T04:47:25.267Z,15.25
2022-09-28T04:50:29.494Z,13.90
2022-09-28T04:53:18.454Z,13.94
2022-09-28T04:55:54.463Z,14.18
2022-09-28T04:58:23.095Z,14.24
2022-09-28T05:00:51.347Z,14.88
2022-09-28T05:03:38.785Z,15.22
2022-09-28T05:06:36.347Z,13.80
2022-09-28T05:09:07.393Z,13.82
2022-09-28T05:11:35.108Z,14.23
2022-09-28T05:14:05.887Z,14.43
2022-09-28T05:16:34.097Z,14.37
2022-09-28T05:19:21.079Z,14.29
2022-09-28T05:21:49.559Z,14.99
2022-09-28T05:24:17.431Z,15.21
2022-09-28T05:26:51.022Z,15.18
2022-09-28T05:29:20.247Z,14.10
2022-09-28T05:32:07.419Z,14.06
2022-09-28T05:34:38.180Z,14.37
2022-09-28T05:37:06.056Z,15.00
2022-09-28T05:39:34.182Z,15.02
2022-09-28T05:42:01.993Z,14.98
2022-09-28T05:44:30.788Z,15.14
2022-09-28T05:46:59.211Z,15.34
2022-09-28T05:49:28.808Z,15.71
2022-09-28T05:51:56.415Z,15.48
2022-09-28T05:54:25.199Z,14.38
2022-09-28T05:56:53.176Z,14.46
2022-09-28T05:59:22.063Z,15.07
2022-09-28T06:01:51.880Z,15.42
2022-09-28T06:04:20.331Z,15.60
2022-09-28T06:06:49.399Z,15.94
2022-09-28T06:09:17.921Z,15.91
2022-09-28T06:12:11.694Z,14.55
2022-09-28T06:14:49.909Z,15.07
2022-09-28T06:17:17.771Z,15.81
2022-09-28T06:19:51.838Z,15.22
2022-09-28T06:22:27.366Z,13.93
2022-09-28T06:25:07.775Z,14.12
2022-09-28T06:27:39.052Z,14.86
2022-09-28T06:30:07.715Z,15.77
2022-09-28T06:32:35.451Z,15.72
2022-09-28T06:35:03.658Z,14.52
2022-09-28T06:37:32.707Z,14.31
2022-09-28T06:40:02.153Z,14.90
2022-09-28T06:42:30.833Z,15.66
2022-09-28T06:45:25.030Z,16.05
2022-09-28T06:48:09.491Z,16.25
2022-09-28T06:50:41.036Z,16.51
2022-09-28T06:53:29.338Z,15.97
2022-09-28T06:56:04.723Z,14.93
2022-09-28T06:58:33.111Z,14.46
2022-09-28T07:01:01.959Z,15.31
2022-09-28T07:03:35.834Z,16.15
2022-09-28T07:06:23.565Z,17.09
2022-09-28T07:09:30.748Z,15.30
2022-09-28T07:12:29.634Z,14.88
2022-09-28T07:15:02.252Z,16.02
2022-09-28T07:17:31.504Z,16.54
2022-09-28T07:20:14.166Z,15.65
2022-09-28T07:22:44.545Z,14.51
2022-09-28T07:25:18.779Z,14.49
2022-09-28T07:27:56.729Z,15.46
2022-09-28T07:30:50.635Z,16.18
2022-09-28T07:33:35.772Z,15.22
2022-09-28T07:36:20.736Z,14.19
2022-09-28T07:38:49.049Z,13.55
2022-09-28T07:41:32.039Z,13.87
2022-09-28T07:44:05.646Z,14.07
2022-09-28T07:46:35.654Z,13.59
2022-09-28T07:49:11.354Z,13.17
2022-09-28T07:52:02.920Z,13.96
2022-09-28T07:54:31.490Z,15.03
2022-09-28T07:57:16.347Z,14.32
2022-09-28T08:00:05.434Z,13.66
2022-09-28T08:02:52.005Z,13.34
2022-09-28T08:05:24.208Z,13.15
2022-09-28T08:07:52.682Z,13.37
2022-09-28T08:10:20.291Z,14.68
2022-09-28T08:13:23.486Z,16.08
2022-09-28T08:16:16.969Z,15.23
2022-09-28T08:18:59.077Z,14.48
2022-09-28T08:21:45.408Z,14.21
2022-09-28T08:24:14.994Z,14.05
2022-09-28T08:26:43.273Z,13.96
2022-09-28T08:29:12.381Z,13.90
2022-09-28T08:32:08.305Z,13.94
2022-09-28T08:34:36.286Z,13.99
2022-09-28T08:37:31.491Z,14.04
2022-09-28T08:40:19.435Z,13.90
2022-09-28T08:43:06.239Z,13.89
2022-09-28T08:45:52.975Z,13.88
2022-09-28T08:48:52.242Z,13.70
2022-09-28T08:51:55.178Z,13.49
2022-09-28T08:54:48.900Z,13.52
2022-09-28T08:57:27.517Z,13.55
2022-09-28T08:59:57.096Z,13.59
2022-09-28T09:02:36.233Z,13.63
2022-09-28T09:05:39.138Z,13.55
2022-09-28T09:08:15.408Z,13.42
2022-09-28T09:10:48.159Z,13.30
2022-09-28T09:13:31.001Z,13.20
2022-09-28T09:16:02.685Z,13.15
2022-09-28T09:19:02.715Z,13.04
2022-09-28T09:21:48.106Z,12.95
2022-09-28T09:24:21.418Z,12.94
2022-09-28T09:26:54.891Z,12.97
2022-09-28T09:29:29.510Z,13.07
2022-09-28T09:32:06.876Z,13.14
2022-09-28T09:34:51.009Z,13.19
2022-09-28T09:38:02.385Z,13.38
2022-09-28T09:40:57.633Z,13.54
2022-09-28T09:43:59.390Z,13.60
2022-09-28T09:46:50.363Z,13.67
2022-09-28T09:49:38.097Z,13.78
2022-09-28T09:52:11.333Z,13.94
2022-09-28T09:54:38.225Z,14.14
2022-09-28T09:57:10.497Z,14.32
2022-09-28T09:59:59.864Z,14.38
2022-09-28T10:02:43.526Z,14.43
2022-09-28T10:05:22.230Z,14.59
2022-09-28T10:07:53.400Z,14.71
2022-09-28T10:10:25.025Z,14.76
2022-09-28T10:12:55.862Z,14.78
2022-09-28T10:15:25.784Z,14.78
2022-09-28T10:18:06.469Z,14.79
2022-09-28T10:20:53.069Z,14.80
2022-09-28T10:23:33.514Z,14.84
2022-09-28T10:26:05.299Z,14.93
2022-09-28T10:28:35.502Z,14.93
2022-09-28T10:31:17.992Z,14.91
2022-09-28T10:33:45.958Z,14.96
2022-09-28T10:36:15.463Z,15.11
2022-09-28T10:38:47.806Z,15.29
2022-09-28T10:41:27.275Z,15.43
2022-09-28T10:44:06.556Z,15.55
2022-09-28T10:46:59.502Z,15.70
2022-09-28T10:49:28.449Z,15.79
2022-09-28T10:51:58.386Z,15.69
2022-09-28T10:54:31.322Z,15.64
2022-09-28T10:57:00.750Z,15.70
2022-09-28T10:59:46.746Z,15.76
2022-09-28T11:02:39.589Z,15.77
2022-09-28T11:05:27.284Z,15.83
2022-09-28T11:07:59.594Z,15.99
2022-09-28T11:10:33.921Z,16.15
2022-09-28T11:13:13.642Z,16.33
2022-09-28T11:15:44.801Z,16.53
2022-09-28T11:18:25.306Z,16.61
2022-09-28T11:21:09.657Z,16.67
2022-09-28T11:23:40.556Z,16.51
2022-09-28T11:26:18.750Z,16.29
2022-09-28T11:28:50.330Z,16.23
2022-09-28T11:31:27.091Z,16.22
2022-09-28T11:34:06.363Z,16.22
2022-09-28T11:37:01.842Z,16.20
2022-09-28T11:39:34.968Z,16.30
2022-09-28T11:42:03.616Z,16.47
2022-09-28T11:44:37.929Z,16.71
2022-09-28T11:47:28.008Z,16.92
2022-09-28T11:49:59.809Z,16.95
2022-09-28T11:52:31.228Z,16.96
2022-09-28T11:55:02.361Z,16.91
2022-09-28T11:57:35.392Z,16.94
2022-09-28T12:00:06.179Z,16.93
2022-09-28T12:02:46.827Z,17.02
2022-09-28T12:05:20.875Z,17.11
2022-09-28T12:07:53.080Z,17.15
2022-09-28T12:10:45.582Z,17.13
2022-09-28T12:13:17.122Z,17.19
2022-09-28T12:16:16.816Z,17.07
2022-09-28T12:18:38.868Z,17.03
2022-09-28T12:21:15.042Z,17.01
2022-09-28T12:23:44.113Z,16.98
2022-09-28T12:26:19.153Z,17.03
2022-09-28T12:28:48.975Z,16.96
2022-09-28T12:31:20.164Z,16.99
2022-09-28T12:33:49.249Z,17.07
2022-09-28T12:36:25.782Z,17.15
2022-09-28T12:39:19.160Z,17.16
2022-09-28T12:41:55.621Z,17.13
2022-09-28T12:44:33.264Z,17.18
2022-09-28T12:47:09.722Z,17.19
2022-09-28T12:52:37.105Z,17.35
2022-09-28T12:55:14.739Z,17.63
2022-09-28T12:57:48.633Z,18.06
2022-09-28T13:00:18.113Z,18.34
2022-09-28T13:02:59.770Z,19.03
2022-09-28T13:05:35.905Z,20.08
2022-09-28T13:08:07.853Z,20.94
2022-09-28T13:10:39.210Z,20.82
2022-09-28T13:13:15.028Z,20.17
2022-09-28T13:15:49.255Z,19.60
2022-09-28T13:18:21.085Z,19.20
2022-09-28T13:20:54.125Z,18.87
2022-09-28T13:23:25.998Z,18.51
2022-09-28T13:25:55.891Z,18.37
2022-09-28T13:28:27.114Z,18.85
2022-09-28T13:30:56.088Z,19.16
2022-09-28T13:33:29.039Z,19.39
2022-09-28T13:35:57.102Z,19.34
2022-09-28T13:38:43.384Z,19.10
2022-09-28T13:41:12.836Z,18.85
2022-09-28T13:43:55.670Z,18.72
2022-09-28T13:46:31.067Z,18.86
2022-09-28T13:49:04.438Z,19.06
2022-09-28T13:51:37.856Z,19.83
2022-09-28T13:54:17.287Z,20.13
2022-09-28T13:56:49.357Z,19.59
2022-09-28T13:59:19.462Z,19.04
2022-09-28T14:01:52.082Z,18.59
2022-09-28T14:04:21.335Z,18.28
2022-09-28T14:06:54.797Z,18.16
2022-09-28T14:09:39.298Z,18.12
2022-09-28T14:12:21.341Z,18.04
2022-09-28T14:14:50.178Z,17.91
2022-09-28T14:17:36.261Z,17.81
2022-09-28T14:20:06.763Z,17.64
2022-09-28T14:22:39.258Z,17.51
2022-09-28T14:25:13.820Z,17.40
2022-09-28T14:27:52.584Z,17.33
2022-09-28T14:30:22.258Z,17.25
2022-09-28T14:32:53.563Z,17.17
2022-09-28T14:35:24.840Z,17.10
2022-09-28T14:38:13.555Z,17.05
2022-09-28T14:41:09.874Z,16.98
2022-09-28T14:43:58.132Z,16.93
2022-09-28T14:46:44.197Z,16.87
2022-09-28T14:49:30.529Z,16.77
2022-09-28T14:52:02.330Z,16.69
2022-09-28T14:54:50.842Z,16.63
2022-09-28T14:57:20.281Z,16.57
2022-09-28T14:59:48.710Z,16.54
2022-09-28T15:02:22.164Z,16.51
2022-09-28T15:04:49.363Z,16.47
2022-09-28T15:07:21.581Z,16.43
2022-09-28T15:09:50.729Z,16.39
2022-09-28T15:12:20.377Z,16.35
2022-09-28T15:14:50.870Z,16.32
2022-09-28T15:17:21.063Z,16.30
2022-09-28T15:19:53.704Z,16.28
2022-09-28T15:22:21.937Z,16.25
2022-09-28T15:24:59.973Z,16.23
2022-09-28T15:27:34.888Z,16.19
2022-09-28T15:30:16.604Z,16.16
2022-09-28T15:32:44.594Z,16.14
2022-09-28T15:35:16.748Z,16.10
2022-09-28T15:37:44.720Z,16.06
2022-09-28T15:40:14.886Z,16.03
2022-09-28T15:42:44.800Z,16.02
2022-09-28T15:45:24.218Z,16.00
2022-09-28T15:47:57.224Z,15.98
2022-09-28T15:50:26.939Z,15.97
2022-09-28T15:52:57.163Z,15.95
2022-09-28T15:55:27.130Z,15.94
2022-09-28T15:58:15.529Z,15.91
2022-09-28T16:00:44.219Z,15.89
2022-09-28T16:03:28.280Z,15.88
2022-09-28T16:06:06.362Z,15.86
2022-09-28T16:08:42.730Z,15.85
2022-09-28T16:11:14.181Z,15.84
2022-09-28T16:13:54.555Z,15.83
2022-09-28T16:16:25.327Z,15.82
2022-09-28T16:18:54.717Z,15.82
2022-09-28T16:21:28.983Z,15.79
2022-09-28T16:23:57.125Z,15.78
2022-09-28T16:26:31.637Z,15.76
2022-09-28T16:29:11.130Z,15.74
2022-09-28T16:31:42.828Z,15.71
2022-09-28T16:34:19.676Z,15.68
2022-09-28T16:36:49.013Z,15.67
2022-09-28T16:39:20.080Z,15.65
2022-09-28T16:41:49.277Z,15.63
2022-09-28T16:44:23.564Z,15.58
2022-09-28T16:46:55.307Z,15.54
2022-09-28T16:49:25.186Z,15.51
2022-09-28T16:51:54.496Z,15.50
2022-09-28T16:54:45.568Z,15.47
2022-09-28T16:57:15.460Z,15.44
2022-09-28T16:59:47.028Z,15.41
2022-09-28T17:02:45.051Z,15.39
2022-09-28T17:05:16.386Z,15.37
2022-09-28T17:07:46.788Z,15.35
2022-09-28T17:10:18.751Z,15.33
2022-09-28T17:12:46.989Z,15.31
2022-09-28T17:15:18.097Z,15.29
2022-09-28T17:17:48.989Z,15.28
2022-09-28T17:20:26.321Z,15.28
2022-09-28T17:22:55.941Z,15.26
2022-09-28T17:25:26.086Z,15.21
2022-09-28T17:27:57.682Z,15.19
2022-09-28T17:30:26.368Z,15.16
2022-09-28T17:32:54.896Z,15.15
2022-09-28T17:35:35.144Z,15.13
2022-09-28T17:38:06.931Z,15.11
2022-09-28T17:40:43.129Z,15.09
2022-09-28T17:43:14.202Z,15.06
2022-09-28T17:45:44.374Z,15.03
2022-09-28T17:48:20.233Z,15.01
2022-09-28T17:50:48.970Z,14.99
2022-09-28T17:53:19.080Z,14.96
2022-09-28T17:55:49.995Z,14.94
2022-09-28T17:58:18.899Z,14.94
2022-09-28T18:00:47.545Z,14.92
2022-09-28T18:03:17.587Z,14.89
2022-09-28T18:05:47.778Z,14.88
2022-09-28T18:08:18.006Z,15.15
2022-09-28T18:10:46.432Z,16.56
2022-09-28T18:13:14.708Z,17.13
2022-09-28T18:15:50.162Z,16.65
2022-09-28T18:18:18.580Z,16.15
2022-09-28T18:20:46.614Z,15.81
2022-09-28T18:23:14.925Z,15.56
2022-09-28T18:25:43.663Z,15.63
2022-09-28T18:28:13.163Z,16.82
2022-09-28T18:30:42.541Z,17.88
2022-09-28T18:33:11.448Z,18.39
2022-09-28T18:35:39.398Z,17.74
2022-09-28T18:38:07.718Z,16.99
2022-09-28T18:40:35.793Z,16.43
2022-09-28T18:43:04.074Z,16.05
2022-09-28T18:45:34.274Z,15.75
2022-09-28T18:48:02.347Z,15.76
2022-09-28T18:50:30.312Z,16.89
2022-09-28T18:53:11.029Z,17.92
2022-09-28T18:55:39.617Z,18.39
2022-09-28T18:58:07.951Z,17.67
2022-09-28T19:00:37.141Z,16.89
2022-09-28T19:03:06.448Z,16.33
2022-09-28T19:05:34.623Z,16.17
2022-09-28T19:08:03.149Z,17.12
2022-09-28T19:10:31.209Z,18.07
2022-09-28T19:12:59.224Z,18.40
2022-09-28T19:15:27.180Z,17.69
2022-09-28T19:17:58.284Z,16.95
2022-09-28T19:20:25.915Z,16.38
2022-09-28T19:22:53.575Z,16.45
2022-09-28T19:25:21.281Z,17.45
2022-09-28T19:27:49.132Z,18.23
2022-09-28T19:30:16.851Z,18.16
2022-09-28T19:32:45.044Z,17.24
2022-09-28T19:35:12.990Z,16.49
2022-09-28T19:37:41.923Z,15.96
2022-09-28T19:40:10.615Z,15.78
2022-09-28T19:42:39.101Z,16.71
2022-09-28T19:45:08.424Z,17.53
2022-09-28T19:47:36.962Z,17.01
2022-09-28T19:50:06.525Z,16.39
2022-09-28T19:52:37.553Z,15.91
2022-09-28T19:55:06.569Z,15.55
2022-09-28T19:57:34.566Z,15.93
2022-09-28T20:00:04.075Z,17.13
2022-09-28T20:02:36.170Z,17.81
2022-09-28T20:05:04.837Z,17.13
2022-09-28T20:07:34.345Z,16.43
2022-09-28T20:10:02.343Z,16.05
2022-09-28T20:12:29.997Z,16.90
2022-09-28T20:14:57.529Z,18.06
2022-09-28T20:17:25.462Z,17.88
2022-09-28T20:19:53.366Z,16.79
2022-09-28T20:22:20.934Z,17.35
2022-09-28T20:24:49.096Z,17.69
2022-09-28T20:27:16.961Z,16.89
2022-09-28T20:29:44.616Z,17.01
2022-09-28T20:32:14.041Z,17.88
2022-09-28T20:34:42.400Z,18.00
2022-09-28T20:37:13.154Z,17.28
2022-09-28T20:39:44.816Z,17.39
2022-09-28T20:42:15.633Z,17.95
2022-09-28T20:44:43.858Z,18.49
2022-09-28T20:47:11.545Z,18.76
2022-09-28T20:49:39.351Z,17.35
2022-09-28T20:52:07.359Z,17.20
2022-09-28T20:54:34.878Z,17.74
2022-09-28T20:57:02.757Z,18.55
2022-09-28T20:59:30.687Z,18.58
2022-09-28T21:01:58.481Z,18.19
2022-09-28T21:04:26.569Z,18.19
2022-09-28T21:06:54.741Z,18.51
2022-09-28T21:09:22.406Z,18.68
2022-09-28T21:11:50.298Z,18.83
2022-09-28T21:14:18.192Z,17.59
2022-09-28T21:16:45.954Z,17.10
2022-09-28T21:19:13.637Z,17.56
2022-09-28T21:21:41.334Z,17.92
2022-09-28T21:24:09.757Z,18.11
2022-09-28T21:26:38.569Z,18.62
2022-09-28T21:29:07.844Z,18.75
2022-09-28T21:31:38.682Z,18.86
2022-09-28T21:34:06.817Z,18.80
2022-09-28T21:36:34.717Z,18.94
2022-09-28T21:39:04.958Z,19.33
2022-09-28T21:41:34.759Z,18.38
2022-09-28T21:44:03.023Z,17.50
2022-09-28T21:46:33.517Z,17.84
2022-09-28T21:49:02.341Z,17.98
2022-09-28T21:51:30.319Z,18.16
2022-09-28T21:53:57.966Z,18.70
2022-09-28T21:56:26.448Z,18.85
2022-09-28T21:58:54.748Z,18.81
2022-09-28T22:01:24.816Z,18.55
2022-09-28T22:03:53.526Z,18.55
2022-09-28T22:06:22.455Z,19.00
2022-09-28T22:08:50.305Z,19.43
2022-09-28T22:11:19.073Z,19.43
2022-09-28T22:13:48.380Z,19.40
2022-09-28T22:16:16.905Z,19.11
2022-09-28T22:18:45.034Z,17.85
2022-09-28T22:21:14.123Z,18.47
2022-09-28T22:23:42.190Z,18.78
2022-09-28T22:26:11.079Z,18.76
2022-09-28T22:28:39.867Z,18.69
2022-09-28T22:31:07.424Z,19.02
2022-09-28T22:33:36.179Z,19.19
2022-09-28T22:36:04.262Z,19.21
2022-09-28T22:38:32.059Z,19.22
2022-09-28T22:41:00.167Z,19.08
2022-09-28T22:43:28.318Z,19.20
2022-09-28T22:46:01.898Z,18.78
2022-09-28T22:48:30.173Z,18.64
2022-09-28T22:50:57.936Z,18.69
2022-09-28T22:53:25.901Z,18.51
2022-09-28T22:55:53.766Z,18.29
2022-09-28T22:58:21.324Z,18.21
2022-09-28T23:00:48.990Z,18.26
2022-09-28T23:03:17.495Z,18.14
2022-09-28T23:05:52.317Z,18.22
2022-09-28T23:08:20.573Z,18.86
2022-09-28T23:10:48.130Z,19.08
2022-09-28T23:13:16.322Z,18.94
2022-09-28T23:15:44.313Z,18.81
2022-09-28T23:18:12.034Z,18.38
2022-09-28T23:20:39.607Z,18.27
2022-09-28T23:23:07.665Z,18.27
2022-09-28T23:25:35.658Z,18.67
2022-09-28T23:28:03.300Z,18.46
2022-09-28T23:30:31.637Z,18.39
2022-09-28T23:32:59.274Z,18.56
2022-09-28T23:35:27.098Z,18.78
2022-09-28T23:37:54.982Z,18.92
2022-09-28T23:40:22.629Z,18.81
2022-09-28T23:42:50.339Z,18.62
2022-09-28T23:45:18.374Z,18.75
2022-09-28T23:47:45.891Z,18.93
2022-09-28T23:50:13.710Z,18.71
2022-09-28T23:52:42.212Z,18.60
2022-09-28T23:55:09.923Z,18.71
2022-09-28T23:57:40.474Z,18.91
